Time;durP1;ratioP1;P1;durP2;ratioP2;P2;SDS_P1;SDS_P2;PMS_P1;PMS_P2;Temp;Humidity;BMP_temperature;BMP_pressure;BME280_temperature;BME280_humidity;BME280_pressure;Samples;Min_cycle;Max_cycle;Signal;HPM_P1;HPM_P2
2021/03/03 00:00:10;;;;;;;10.75;6.22;;;;;;;1.66;73.83;100906.70;1685810;82;21382;-79
2021/03/03 00:02:38;;;;;;;10.38;6.03;;;;;;;1.66;73.84;100904.55;1702353;81;21066;-79
2021/03/03 00:05:08;;;;;;;11.08;6.10;;;;;;;1.68;73.88;100904.04;1705700;84;22350;-78
2021/03/03 00:07:36;;;;;;;10.88;5.95;;;;;;;1.68;73.88;100908.80;1708085;84;21083;-79
2021/03/03 00:10:05;;;;;;;9.10;5.60;;;;;;;1.68;73.87;100906.19;1716939;83;21140;-80
2021/03/03 00:12:33;;;;;;;8.53;4.95;;;;;;;1.70;73.89;100916.55;1715240;81;21153;-79
2021/03/03 00:15:01;;;;;;;8.33;5.40;;;;;;;1.70;73.90;100912.64;1701673;83;21133;-79
2021/03/03 00:17:29;;;;;;;8.03;4.85;;;;;;;1.73;73.88;100913.38;1695461;84;22072;-79
2021/03/03 00:19:58;;;;;;;7.55;5.00;;;;;;;1.74;73.85;100925.98;1701001;83;21156;-79
2021/03/03 00:22:26;;;;;;;9.80;6.22;;;;;;;1.75;73.83;100919.86;1708346;82;21117;-79
2021/03/03 00:24:54;;;;;;;8.90;4.90;;;;;;;1.76;73.81;100923.31;1714857;83;21561;-79
2021/03/03 00:27:22;;;;;;;8.20;5.10;;;;;;;1.76;73.82;100924.16;1715115;83;21132;-79
2021/03/03 00:29:51;;;;;;;9.88;5.35;;;;;;;1.76;73.79;100922.86;1655778;85;23303;-79
2021/03/03 00:32:19;;;;;;;9.05;5.00;;;;;;;1.78;73.77;100927.56;1679353;85;21121;-78
2021/03/03 00:34:47;;;;;;;9.30;5.28;;;;;;;1.77;73.77;100924.56;1678263;84;21152;-79
2021/03/03 00:37:17;;;;;;;8.18;4.97;;;;;;;1.77;73.77;100924.56;1721986;83;21058;-79
2021/03/03 00:39:44;;;;;;;7.17;4.72;;;;;;;1.78;73.75;100925.41;1665715;84;21448;-78
2021/03/03 00:42:12;;;;;;;8.40;4.95;;;;;;;1.79;73.72;100925.80;1697672;82;22097;-79
2021/03/03 00:44:40;;;;;;;7.55;4.33;;;;;;;1.77;73.70;100927.16;1694694;84;21596;-79
2021/03/03 00:47:08;;;;;;;9.40;5.05;;;;;;;1.76;73.70;100929.83;1712600;81;21133;-79
2021/03/03 00:49:36;;;;;;;6.95;4.70;;;;;;;1.73;73.67;100928.16;1709750;81;21077;-79
2021/03/03 00:52:06;;;;;;;9.03;5.47;;;;;;;1.68;73.67;100926.17;1727860;82;21504;-79
2021/03/03 00:54:34;;;;;;;9.28;5.30;;;;;;;1.66;73.70;100934.05;1718026;82;22094;-79
2021/03/03 00:57:03;;;;;;;8.90;4.50;;;;;;;1.62;73.75;100934.18;1708738;83;21125;-78
2021/03/03 00:59:31;;;;;;;8.58;5.12;;;;;;;1.58;73.77;100939.11;1707286;84;21196;-79
2021/03/03 01:01:59;;;;;;;12.40;6.53;;;;;;;1.53;73.81;100931.88;1722346;83;21712;-78
2021/03/03 01:04:27;;;;;;;10.60;5.53;;;;;;;1.48;73.88;100933.35;1706456;84;21086;-79
2021/03/03 01:06:56;;;;;;;11.33;6.65;;;;;;;1.42;73.94;100930.48;1706486;84;21918;-79
2021/03/03 01:09:24;;;;;;;11.78;6.37;;;;;;;1.37;73.98;100939.36;1720297;83;21169;-79
2021/03/03 01:11:52;;;;;;;9.45;6.00;;;;;;;1.31;74.09;100941.70;1703235;84;21184;-78
2021/03/03 01:14:21;;;;;;;10.48;6.67;;;;;;;1.25;74.17;100937.98;1699830;82;21113;-79
2021/03/03 01:16:51;;;;;;;10.58;6.40;;;;;;;1.20;74.28;100936.45;1717714;83;21525;-79
2021/03/03 01:19:21;;;;;;;13.93;6.70;;;;;;;1.15;74.32;100943.92;1706802;84;22122;-79
2021/03/03 01:21:48;;;;;;;11.08;6.75;;;;;;;1.09;74.52;100951.94;1706651;83;21081;-79
2021/03/03 01:24:16;;;;;;;12.35;6.12;;;;;;;1.04;74.56;100952.52;1658017;85;21102;-78
2021/03/03 01:26:44;;;;;;;11.38;6.30;;;;;;;1.00;74.61;100948.78;1706879;83;21145;-79
2021/03/03 01:29:13;;;;;;;12.18;6.67;;;;;;;0.97;74.77;100951.48;1695036;83;21121;-79
2021/03/03 01:31:41;;;;;;;13.50;7.15;;;;;;;0.91;74.93;100947.75;1738999;82;21907;-79
2021/03/03 01:34:09;;;;;;;10.05;5.55;;;;;;;0.86;75.02;100950.03;1727850;82;21188;-78
2021/03/03 01:36:37;;;;;;;11.88;5.70;;;;;;;0.84;75.09;100952.28;1701510;82;21101;-77
2021/03/03 01:39:07;;;;;;;14.73;7.10;;;;;;;0.80;75.30;100955.88;1706340;84;21184;-79
2021/03/03 01:41:34;;;;;;;10.82;6.15;;;;;;;0.75;75.48;100960.35;1719614;83;21129;-78
2021/03/03 01:44:04;;;;;;;9.08;5.47;;;;;;;0.72;75.59;100955.25;1718719;83;22187;-78
2021/03/03 01:46:32;;;;;;;11.05;6.42;;;;;;;0.70;75.74;100958.35;1695307;84;21026;-78
2021/03/03 01:49:00;;;;;;;9.70;5.35;;;;;;;0.66;75.78;100966.67;1674982;85;21377;-79
2021/03/03 01:51:29;;;;;;;14.20;6.83;;;;;;;0.64;75.94;100970.22;1714377;83;21512;-79
2021/03/03 01:53:56;;;;;;;12.88;7.20;;;;;;;0.63;75.94;100968.52;1721353;83;21073;-79
2021/03/03 01:56:24;;;;;;;8.43;4.70;;;;;;;0.62;75.98;100972.87;1681523;84;21920;-79
2021/03/03 01:58:52;;;;;;;13.18;6.70;;;;;;;0.60;75.97;100973.81;1694496;82;21136;-79
2021/03/03 02:01:20;;;;;;;11.53;6.55;;;;;;;0.55;76.16;100978.68;1700810;82;21206;-78
2021/03/03 02:03:48;;;;;;;12.55;6.70;;;;;;;0.53;76.27;100972.68;1678552;84;21097;-78
2021/03/03 02:06:49;;;;;;;11.25;6.17;;;;;;;0.50;76.31;100975.38;1673910;84;21164;-78
2021/03/03 02:09:42;;;;;;;9.88;5.33;;;;;;;0.49;76.39;100980.17;1695666;84;24354;-77
2021/03/03 02:12:31;;;;;;;11.97;6.20;;;;;;;0.46;76.44;100982.84;1695669;84;21172;-79
2021/03/03 02:15:00;;;;;;;12.88;6.28;;;;;;;0.43;76.45;100987.28;1690947;83;21148;-76
2021/03/03 02:17:30;;;;;;;13.25;7.08;;;;;;;0.39;76.75;100986.98;1694246;84;21192;-78
2021/03/03 02:20:02;;;;;;;13.78;7.67;;;;;;;0.37;76.82;100988.73;1691511;83;21115;-77
2021/03/03 02:22:48;;;;;;;12.53;6.53;;;;;;;0.34;76.83;100990.98;1678332;85;22061;-78
2021/03/03 02:25:28;;;;;;;10.75;6.00;;;;;;;0.32;76.96;101000.57;1667481;85;21120;-79
2021/03/03 02:27:59;;;;;;;14.23;7.90;;;;;;;0.29;77.09;101003.27;1650386;87;21097;-78
2021/03/03 02:30:27;;;;;;;16.02;8.18;;;;;;;0.26;77.21;101004.17;1643541;86;21077;-78
2021/03/03 02:32:56;;;;;;;14.20;7.70;;;;;;;0.24;77.28;101000.77;1669022;86;21085;-78
2021/03/03 02:35:24;;;;;;;10.68;6.37;;;;;;;0.24;77.31;101007.72;1668817;84;21979;-78
2021/03/03 02:37:54;;;;;;;14.40;7.87;;;;;;;0.21;77.29;101011.25;1666476;85;21600;-78
2021/03/03 02:40:22;;;;;;;12.85;6.75;;;;;;;0.19;77.41;101014.77;1666190;86;21144;-78
2021/03/03 02:42:51;;;;;;;18.60;8.95;;;;;;;0.16;77.53;101015.70;1642271;86;21198;-78
2021/03/03 02:45:19;;;;;;;13.08;6.83;;;;;;;0.14;77.57;101019.25;1667371;86;21067;-78
2021/03/03 02:47:48;;;;;;;11.75;7.55;;;;;;;0.13;77.62;101018.39;1681263;85;21896;-78
2021/03/03 02:50:17;;;;;;;10.70;6.95;;;;;;;0.12;77.72;101027.08;1681201;85;21520;-78
2021/03/03 02:52:54;;;;;;;12.25;7.12;;;;;;;0.11;77.72;101038.37;1671365;85;21105;-80
2021/03/03 02:55:24;;;;;;;16.25;8.48;;;;;;;0.08;77.80;101037.57;1661183;86;21409;-78
2021/03/03 02:58:00;;;;;;;13.43;7.28;;;;;;;0.05;77.87;101036.36;1655438;84;21138;-78
2021/03/03 03:00:38;;;;;;;11.97;6.15;;;;;;;0.03;77.89;101047.24;1691166;83;22077;-78
2021/03/03 03:03:38;;;;;;;12.03;6.92;;;;;;;0.01;78.01;101047.73;1705216;83;21180;-78
2021/03/03 03:06:34;;;;;;;14.80;7.97;;;;;;;-0.02;78.04;101047.34;1672590;85;21113;-79
2021/03/03 03:09:21;;;;;;;15.72;8.70;;;;;;;-0.05;78.14;101044.83;1672464;85;21220;-78
2021/03/03 03:12:08;;;;;;;11.90;7.58;;;;;;;-0.07;78.17;101055.71;1662932;84;21093;-79
2021/03/03 03:14:54;;;;;;;9.38;6.10;;;;;;;-0.10;78.35;101047.52;1676509;85;21944;-78
2021/03/03 03:17:21;;;;;;;11.80;6.40;;;;;;;-0.11;78.46;101043.22;1680123;85;21133;-78
2021/03/03 03:19:50;;;;;;;13.28;7.25;;;;;;;-0.12;78.42;101045.42;1726324;81;21101;-78
2021/03/03 03:22:18;;;;;;;14.65;7.30;;;;;;;-0.15;78.51;101049.40;1696341;82;21219;-79
2021/03/03 03:24:45;;;;;;;10.18;6.67;;;;;;;-0.13;78.58;101054.10;1680603;85;21121;-79
2021/03/03 03:27:14;;;;;;;10.30;6.37;;;;;;;-0.15;78.66;101058.48;1702587;84;22028;-79
2021/03/03 03:29:42;;;;;;;10.98;6.00;;;;;;;-0.14;78.67;101062.78;1698908;83;21510;-79
2021/03/03 03:32:12;;;;;;;13.62;6.65;;;;;;;-0.15;78.67;101064.98;1697830;83;21462;-79
2021/03/03 03:34:40;;;;;;;11.45;7.08;;;;;;;-0.16;78.77;101067.61;1710050;83;21164;-79
2021/03/03 03:37:08;;;;;;;11.35;6.55;;;;;;;-0.16;78.74;101073.66;1719274;83;21482;-78
2021/03/03 03:39:37;;;;;;;11.57;6.72;;;;;;;-0.15;78.82;101075.36;1693469;83;21930;-79
2021/03/03 03:42:05;;;;;;;12.65;7.17;;;;;;;-0.16;78.84;101076.25;1722881;83;21162;-79
2021/03/03 03:44:33;;;;;;;10.28;6.12;;;;;;;-0.17;78.87;101077.59;1721263;83;21576;-79
2021/03/03 03:47:01;;;;;;;11.90;7.10;;;;;;;-0.19;78.84;101074.16;1706439;82;21188;-79
2021/03/03 03:49:30;;;;;;;14.95;7.42;;;;;;;-0.21;78.89;101076.80;1695385;83;21083;-79
2021/03/03 03:51:58;;;;;;;13.43;6.80;;;;;;;-0.21;78.94;101074.20;1688741;83;22064;-79
2021/03/03 03:54:26;;;;;;;13.00;6.87;;;;;;;-0.20;78.93;101077.64;1687245;83;21092;-79
2021/03/03 03:56:53;;;;;;;12.10;7.42;;;;;;;-0.21;78.94;101081.14;1709366;83;21571;-79
2021/03/03 03:59:22;;;;;;;9.90;6.12;;;;;;;-0.23;78.94;101079.88;1718453;82;21235;-79
2021/03/03 04:01:51;;;;;;;10.82;7.15;;;;;;;-0.23;79.01;101084.22;1705391;83;21179;-79
2021/03/03 04:04:19;;;;;;;11.20;6.03;;;;;;;-0.24;79.01;101082.07;1703621;82;22092;-77
2021/03/03 04:06:47;;;;;;;11.63;6.80;;;;;;;-0.24;79.02;101085.97;1693916;84;21084;-79
2021/03/03 04:09:16;;;;;;;9.90;6.00;;;;;;;-0.24;79.08;101084.66;1693523;84;21089;-79
2021/03/03 04:11:44;;;;;;;11.68;6.12;;;;;;;-0.24;79.05;101087.27;1688412;84;21192;-78
2021/03/03 04:14:12;;;;;;;10.72;6.60;;;;;;;-0.25;79.04;101089.45;1687738;83;21188;-79
2021/03/03 04:16:40;;;;;;;9.43;5.55;;;;;;;-0.26;79.05;101079.96;1681327;84;22076;-77
2021/03/03 04:19:08;;;;;;;12.78;6.72;;;;;;;-0.28;79.08;101083.05;1671382;84;21189;-78
2021/03/03 04:21:36;;;;;;;12.40;6.78;;;;;;;-0.28;79.11;101086.94;1690631;84;21125;-78
2021/03/03 04:24:06;;;;;;;9.43;5.90;;;;;;;-0.28;79.08;101085.64;1692646;84;22767;-78
2021/03/03 04:26:34;;;;;;;10.55;6.10;;;;;;;-0.29;79.05;101091.69;1685051;84;21157;-78
2021/03/03 04:29:02;;;;;;;9.10;5.25;;;;;;;-0.30;79.10;101091.29;1680007;84;22868;-78
2021/03/03 04:31:31;;;;;;;10.82;5.80;;;;;;;-0.31;79.09;101102.12;1691789;84;21204;-77
2021/03/03 04:33:59;;;;;;;13.62;6.20;;;;;;;-0.32;79.12;101102.16;1691057;84;21090;-77
2021/03/03 04:36:27;;;;;;;11.73;6.33;;;;;;;-0.35;79.12;101099.20;1690420;83;21525;-77
2021/03/03 04:38:55;;;;;;;8.55;5.53;;;;;;;-0.35;79.10;101103.09;1699462;83;21145;-77
2021/03/03 04:41:23;;;;;;;11.85;6.50;;;;;;;-0.37;79.12;101107.47;1675451;84;22072;-77
2021/03/03 04:43:51;;;;;;;12.15;6.45;;;;;;;-0.39;79.16;101106.62;1672510;84;21185;-77
2021/03/03 04:46:18;;;;;;;11.75;6.67;;;;;;;-0.38;79.15;101116.59;1674674;85;21373;-77
2021/03/03 04:48:47;;;;;;;13.03;6.35;;;;;;;-0.38;79.17;101129.13;1666928;85;21251;-77
2021/03/03 04:51:15;;;;;;;11.65;6.75;;;;;;;-0.38;79.16;101126.53;1648724;84;21136;-77
2021/03/03 04:53:42;;;;;;;25.08;14.85;;;;;;;-0.38;79.19;101127.83;1662006;86;24235;-78
2021/03/03 04:56:10;;;;;;;15.93;8.48;;;;;;;-0.38;79.18;101132.16;1664839;84;21091;-77
2021/03/03 04:58:40;;;;;;;14.83;8.98;;;;;;;-0.38;79.18;101139.95;1665401;85;21093;-77
2021/03/03 05:01:08;;;;;;;16.70;12.25;;;;;;;-0.36;79.15;101140.32;1691339;84;21204;-77
2021/03/03 05:03:37;;;;;;;15.85;8.23;;;;;;;-0.36;79.14;101138.17;1676985;84;21212;-79
2021/03/03 05:06:07;;;;;;;12.63;7.45;;;;;;;-0.36;79.12;101142.06;1700473;83;23015;-78
2021/03/03 05:08:35;;;;;;;15.53;10.65;;;;;;;-0.36;79.15;101145.51;1707942;82;21076;-77
2021/03/03 05:11:03;;;;;;;13.35;7.75;;;;;;;-0.34;79.16;101151.52;1704965;82;21121;-78
2021/03/03 05:13:33;;;;;;;17.80;9.53;;;;;;;-0.32;79.16;101156.22;1721638;83;21568;-76
2021/03/03 05:16:01;;;;;;;8.38;5.55;;;;;;;-0.30;79.09;101162.23;1706607;82;21179;-77
2021/03/03 05:18:30;;;;;;;12.60;7.00;;;;;;;-0.28;79.08;101155.73;1723129;82;22139;-78
2021/03/03 05:20:57;;;;;;;11.08;5.65;;;;;;;-0.25;79.08;101158.25;1714018;82;21500;-77
2021/03/03 05:23:33;;;;;;;10.20;5.70;;;;;;;-0.21;79.01;101160.31;1718123;83;21070;-74
2021/03/03 05:26:02;;;;;;;13.00;6.03;;;;;;;-0.18;78.94;101159.83;1708353;82;21176;-77
2021/03/03 05:28:30;;;;;;;13.75;7.12;;;;;;;-0.15;78.87;101170.13;1695227;84;21085;-77
2021/03/03 05:30:58;;;;;;;16.93;9.15;;;;;;;-0.11;78.79;101172.20;1705433;83;22066;-79
2021/03/03 05:33:34;;;;;;;26.23;15.90;;;;;;;-0.08;78.74;101173.01;1684165;82;21198;-75
2021/03/03 05:36:05;;;;;;;14.40;8.40;;;;;;;-0.05;78.67;101165.14;1705277;82;21152;-78
2021/03/03 05:38:35;;;;;;;12.68;7.35;;;;;;;-0.02;78.59;101163.75;1721502;82;21600;-75
2021/03/03 05:41:03;;;;;;;11.95;6.80;;;;;;;0.03;78.47;101172.76;1702783;82;21148;-80
2021/03/03 05:43:33;;;;;;;11.40;6.33;;;;;;;0.08;78.43;101170.03;1686876;84;21134;-77
2021/03/03 05:46:02;;;;;;;10.65;6.60;;;;;;;0.14;78.27;101173.80;1687610;84;21605;-79
2021/03/03 05:48:47;;;;;;;12.33;6.35;;;;;;;0.17;78.18;101177.17;1700666;82;21200;-78
2021/03/03 05:51:15;;;;;;;;;;;;;;;0.23;78.07;101174.88;1678724;84;21207;-77
2021/03/03 05:53:42;;;;;;;8.38;5.65;;;;;;;0.28;77.97;101175.16;1710547;83;20267;-77
2021/03/03 05:56:10;;;;;;;10.25;5.90;;;;;;;0.33;77.88;101183.31;1664612;85;22524;-78
2021/03/03 05:58:40;;;;;;;10.90;5.90;;;;;;;0.37;77.75;101180.58;1708448;83;21093;-78
2021/03/03 06:01:09;;;;;;;26.65;14.68;;;;;;;0.43;77.60;101186.09;1708474;82;21101;-79
2021/03/03 06:03:38;;;;;;;20.20;11.93;;;;;;;0.49;77.46;101188.10;1711418;83;21266;-78
2021/03/03 06:06:06;;;;;;;39.90;22.35;;;;;;;0.54;77.26;101183.63;1697364;82;21624;-76
2021/03/03 06:08:34;;;;;;;20.43;10.70;;;;;;;0.61;77.06;101183.48;1710965;83;21902;-78
2021/03/03 06:11:03;;;;;;;19.80;9.58;;;;;;;0.65;76.76;101190.30;1707982;83;21144;-78
2021/03/03 06:13:32;;;;;;;67.78;34.53;;;;;;;0.71;76.68;101186.25;1692542;84;21684;-77
2021/03/03 06:16:00;;;;;;;30.30;16.05;;;;;;;0.78;76.56;101188.66;1718301;83;21513;-77
2021/03/03 06:18:28;;;;;;;10.75;6.45;;;;;;;0.85;76.48;101188.03;1676947;84;21100;-77
2021/03/03 06:20:56;;;;;;;8.83;5.70;;;;;;;0.92;75.95;101192.63;1716385;82;22985;-78
2021/03/03 06:23:29;;;;;;;10.48;6.37;;;;;;;0.98;75.71;101186.83;1715280;82;21560;-75
2021/03/03 06:26:00;;;;;;;;;;;;;;;1.04;75.44;101191.00;1678012;84;21118;-81
2021/03/03 06:28:40;;;;;;;10.82;4.10;;;;;;;1.09;74.93;101187.39;1722285;82;21440;-77
2021/03/03 06:31:32;;;;;;;7.80;3.55;;;;;;;1.09;74.47;101188.69;1699426;83;21068;-78
2021/03/03 06:34:19;;;;;;;14.60;7.95;;;;;;;1.13;74.44;101190.30;1701962;84;21909;-76
2021/03/03 06:37:04;;;;;;;8.70;4.60;;;;;;;1.22;74.15;101204.81;1695684;82;21097;-77
2021/03/03 06:39:36;;;;;;;6.92;4.00;;;;;;;1.27;73.75;101199.05;1695333;84;21125;-76
2021/03/03 06:42:06;;;;;;;6.75;3.58;;;;;;;1.31;73.45;101205.00;1699823;82;21161;-76
2021/03/03 06:44:49;;;;;;;5.53;3.20;;;;;;;1.35;73.17;101209.22;1698859;84;21125;-75
2021/03/03 06:47:18;;;;;;;5.03;3.42;;;;;;;1.40;73.07;101208.20;1711368;83;22071;-76
2021/03/03 06:49:48;;;;;;;6.12;3.35;;;;;;;1.47;72.84;101214.09;1706320;84;21537;-76
2021/03/03 06:52:16;;;;;;;7.75;3.45;;;;;;;1.52;72.39;101217.86;1721621;83;21061;-76
2021/03/03 06:54:45;;;;;;;7.12;3.40;;;;;;;1.54;71.87;101207.80;1717487;82;21137;-77
2021/03/03 06:57:14;;;;;;;7.78;4.30;;;;;;;1.59;71.80;101208.98;1691481;84;21157;-77
2021/03/03 06:59:43;;;;;;;6.30;3.77;;;;;;;1.62;71.41;101217.99;1704336;82;22759;-76
2021/03/03 07:02:15;;;;;;;9.75;4.83;;;;;;;1.65;71.35;101212.27;1718045;83;21502;-75
2021/03/03 07:04:45;;;;;;;8.40;4.15;;;;;;;1.69;71.14;101212.57;1715032;83;21154;-76
2021/03/03 07:07:16;;;;;;;9.10;4.10;;;;;;;1.74;70.84;101217.66;1726546;82;21108;-74
2021/03/03 07:09:59;;;;;;;7.60;4.20;;;;;;;1.78;70.65;101218.41;1704634;84;21168;-77
2021/03/03 07:12:30;;;;;;;6.58;3.10;;;;;;;1.81;70.32;101213.95;1674781;85;22128;-77
2021/03/03 07:15:07;;;;;;;6.83;3.77;;;;;;;1.85;70.21;101217.34;1704654;84;21377;-78
2021/03/03 07:17:38;;;;;;;6.37;3.45;;;;;;;1.91;70.15;101216.69;1677933;85;21141;-78
2021/03/03 07:20:15;;;;;;;5.75;3.40;;;;;;;1.98;70.12;101222.12;1718444;83;21070;-78
2021/03/03 07:22:48;;;;;;;7.30;3.52;;;;;;;2.07;69.92;101224.05;1720355;83;21134;-78
2021/03/03 07:25:19;;;;;;;9.43;5.47;;;;;;;2.13;69.61;101224.72;1718540;81;21814;-80
2021/03/03 07:27:48;;;;;;;8.18;5.55;;;;;;;2.17;69.49;101228.92;1711465;83;21099;-80
2021/03/03 07:30:20;;;;;;;8.40;4.40;;;;;;;2.26;69.39;101232.55;1711341;83;21569;-79
2021/03/03 07:32:48;;;;;;;9.00;5.00;;;;;;;2.37;69.23;101232.66;1710914;83;21089;-78
2021/03/03 07:35:18;;;;;;;9.70;6.55;;;;;;;2.47;68.67;101234.07;1708176;83;21205;-78
2021/03/03 07:37:51;;;;;;;7.95;4.00;;;;;;;2.51;68.58;101232.64;1710899;83;21671;-78
2021/03/03 07:40:19;;;;;;;8.08;4.20;;;;;;;2.56;68.16;101233.32;1697074;83;26674;-77
2021/03/03 07:42:55;;;;;;;6.40;3.00;;;;;;;2.56;67.48;101236.38;1692497;82;21096;-77
2021/03/03 07:45:23;;;;;;;6.35;3.72;;;;;;;2.54;67.18;101242.95;1707169;82;21120;-78
2021/03/03 07:47:51;;;;;;;6.75;3.40;;;;;;;2.51;67.28;101239.58;1714030;83;21132;-75
2021/03/03 07:50:22;;;;;;;8.68;4.58;;;;;;;2.52;67.11;101238.70;1726119;81;22070;-77
2021/03/03 07:52:56;;;;;;;7.85;4.37;;;;;;;2.53;66.86;101236.04;1727317;82;21158;-75
2021/03/03 07:55:24;;;;;;;7.92;4.10;;;;;;;2.54;66.92;101235.59;1702316;83;21384;-81
2021/03/03 07:57:54;;;;;;;6.30;4.00;;;;;;;2.58;66.58;101243.24;1692499;84;21077;-75
2021/03/03 08:00:30;;;;;;;6.55;4.37;;;;;;;2.63;66.63;101247.48;1695548;83;21210;-74
2021/03/03 08:02:58;;;;;;;10.65;6.05;;;;;;;2.69;66.60;101250.72;1698197;82;22147;-76
2021/03/03 08:05:30;;;;;;;6.62;4.00;;;;;;;2.76;66.37;101247.47;1687912;83;22684;-76
2021/03/03 08:11:11;;;;;;;8.53;5.10;;;;;;;2.92;65.74;101249.12;1855401;76;29389;-77
2021/03/03 08:14:02;;;;;;;9.93;5.42;;;;;;;2.85;65.45;101254.98;1829157;77;21461;-76
2021/03/03 08:16:31;;;;;;;8.88;4.17;;;;;;;2.81;65.48;101255.55;1716241;82;22060;-78
2021/03/03 08:18:59;;;;;;;5.60;3.37;;;;;;;2.84;65.21;101254.14;1688490;83;21206;-79
2021/03/03 08:21:28;;;;;;;4.70;2.95;;;;;;;2.82;65.22;101255.95;1714621;82;21510;-79
2021/03/03 08:23:59;;;;;;;6.03;2.95;;;;;;;2.83;65.04;101256.34;1715043;83;21129;-78
2021/03/03 08:26:33;;;;;;;5.78;2.67;;;;;;;2.86;65.12;101266.67;1715557;83;21093;-77
2021/03/03 08:29:16;;;;;;;6.47;2.98;;;;;;;2.93;64.79;101276.47;1716058;83;22069;-77
2021/03/03 08:31:44;;;;;;;6.45;3.30;;;;;;;2.91;64.75;101268.30;1716208;82;21086;-77
2021/03/03 08:34:14;;;;;;;9.13;3.75;;;;;;;2.92;64.93;101266.08;1717219;82;21178;-76
2021/03/03 08:36:48;;;;;;;5.35;2.90;;;;;;;2.97;64.59;101266.77;1707346;83;21140;-75
2021/03/03 08:39:22;;;;;;;4.87;2.53;;;;;;;2.99;64.43;101267.56;1714552;83;21146;-72
2021/03/03 08:41:49;;;;;;;;;;;;;;;3.03;64.18;101272.64;1718207;83;22060;-75
2021/03/03 08:44:17;;;;;;;5.03;2.65;;;;;;;3.10;64.12;101262.40;1716419;83;20461;-76
2021/03/03 08:46:48;;;;;;;6.25;4.33;;;;;;;3.16;64.00;101267.84;1715145;82;21142;-76
2021/03/03 08:49:23;;;;;;;6.55;3.30;;;;;;;3.22;64.07;101271.56;1716152;82;21445;-74
2021/03/03 08:51:52;;;;;;;6.28;4.05;;;;;;;3.26;63.63;101266.61;1723512;83;21069;-75
2021/03/03 08:54:43;;;;;;;6.65;3.47;;;;;;;3.28;63.53;101261.34;1696014;83;22141;-80
2021/03/03 08:57:30;;;;;;;6.55;2.87;;;;;;;3.35;63.76;101271.52;1719080;83;21094;-75
2021/03/03 08:59:58;;;;;;;6.33;2.90;;;;;;;3.44;63.44;101264.66;1718942;83;21062;-77
2021/03/03 09:02:36;;;;;;;7.33;3.35;;;;;;;3.53;63.24;101267.86;1719166;83;21148;-81
2021/03/03 09:05:10;;;;;;;6.53;3.08;;;;;;;3.59;63.24;101271.11;1719237;83;21493;-80
2021/03/03 09:07:39;;;;;;;5.70;2.70;;;;;;;3.72;63.20;101268.89;1726595;82;21895;-81
2021/03/03 09:10:15;;;;;;;4.65;2.75;;;;;;;3.80;62.19;101276.45;1731520;82;21477;-75
2021/03/03 09:12:44;;;;;;;4.72;2.75;;;;;;;3.83;62.22;101276.34;1731603;82;21047;-76
2021/03/03 09:15:14;;;;;;;4.30;2.85;;;;;;;3.93;62.51;101273.32;1732020;82;21473;-78
2021/03/03 09:17:44;;;;;;;5.87;3.02;;;;;;;4.10;62.16;101279.22;1732884;82;21193;-78
2021/03/03 09:20:18;;;;;;;5.67;2.47;;;;;;;4.22;61.50;101281.81;1732859;82;21889;-77
2021/03/03 09:22:47;;;;;;;4.90;2.62;;;;;;;4.19;61.08;101276.72;1732406;82;21572;-78
2021/03/03 09:25:17;;;;;;;3.92;2.35;;;;;;;4.20;60.85;101286.27;1725699;82;21124;-78
2021/03/03 09:27:53;;;;;;;6.40;3.70;;;;;;;4.19;60.08;101280.19;1696518;83;21093;-78
2021/03/03 09:30:23;;;;;;;5.67;3.10;;;;;;;4.16;60.25;101287.30;1720031;83;21365;-76
2021/03/03 09:32:51;;;;;;;6.60;3.42;;;;;;;4.18;60.44;101285.02;1716089;83;22973;-77
2021/03/03 09:35:28;;;;;;;4.83;2.55;;;;;;;4.28;60.45;101294.67;1688336;83;21082;-78
2021/03/03 09:37:56;;;;;;;5.30;2.80;;;;;;;4.40;59.68;101289.41;1672493;84;21133;-79
2021/03/03 09:40:33;;;;;;;4.78;2.70;;;;;;;4.46;59.34;101286.11;1720185;82;21173;-78
2021/03/03 09:43:01;;;;;;;5.30;2.40;;;;;;;4.52;59.47;101288.92;1720012;83;21066;-78
2021/03/03 09:45:29;;;;;;;5.72;2.00;;;;;;;4.58;58.79;101290.84;1719893;83;22080;-78
2021/03/03 09:47:58;;;;;;;4.22;2.08;;;;;;;4.64;58.49;101292.84;1719800;83;21147;-78
2021/03/03 09:50:30;;;;;;;5.75;3.35;;;;;;;4.66;58.24;101288.39;1719827;83;21093;-77
2021/03/03 09:52:58;;;;;;;7.53;3.12;;;;;;;4.73;58.10;101289.82;1719876;83;21133;-78
2021/03/03 09:55:34;;;;;;;5.03;2.92;;;;;;;4.81;58.34;101284.67;1719137;83;21036;-78
2021/03/03 09:58:03;;;;;;;3.47;1.98;;;;;;;4.98;58.25;101285.30;1720163;82;21909;-78
2021/03/03 10:00:37;;;;;;;5.22;2.75;;;;;;;5.16;58.48;101280.59;1719811;83;21097;-78
2021/03/03 10:03:09;;;;;;;5.33;2.50;;;;;;;5.40;58.40;101283.06;1719838;83;21158;-78
2021/03/03 10:05:37;;;;;;;6.00;2.67;;;;;;;5.62;57.44;101272.05;1719877;83;21066;-78
2021/03/03 10:08:09;;;;;;;5.05;2.90;;;;;;;5.78;55.81;101277.91;1719961;83;21430;-78
2021/03/03 10:10:46;;;;;;;4.33;1.90;;;;;;;5.80;55.35;101270.84;1719939;83;22024;-77
2021/03/03 10:13:24;;;;;;;3.87;2.17;;;;;;;5.84;53.94;101278.48;1719891;83;21380;-76
2021/03/03 10:15:55;;;;;;;6.05;2.95;;;;;;;5.77;53.63;101277.05;1724351;82;21107;-77
2021/03/03 10:18:23;;;;;;;4.83;2.58;;;;;;;5.70;54.27;101268.63;1719916;83;21159;-78
2021/03/03 10:20:56;;;;;;;6.28;2.58;;;;;;;5.84;55.08;101275.02;1719819;83;21151;-78
2021/03/03 10:23:30;;;;;;;5.72;2.22;;;;;;;6.03;54.50;101260.17;1720002;83;22978;-77
2021/03/03 10:26:05;;;;;;;5.30;2.70;;;;;;;6.14;54.05;101264.45;1719724;83;21056;-77
2021/03/03 10:28:33;;;;;;;5.40;2.50;;;;;;;6.27;54.52;101258.16;1719872;83;21120;-78
2021/03/03 10:31:04;;;;;;;5.22;2.35;;;;;;;6.51;53.97;101259.63;1719797;83;21211;-78
2021/03/03 10:33:42;;;;;;;5.53;2.33;;;;;;;6.74;53.34;101255.02;1719913;82;21086;-78
2021/03/03 10:36:22;;;;;;;4.00;2.17;;;;;;;6.96;53.19;101253.51;1719855;83;21238;-78
2021/03/03 10:38:55;;;;;;;4.47;2.40;;;;;;;7.21;52.19;101255.25;1716290;83;21152;-77
2021/03/03 10:41:30;;;;;;;3.60;2.50;;;;;;;7.39;51.61;101258.25;1719458;83;21576;-78
2021/03/03 10:43:58;;;;;;;4.53;2.15;;;;;;;7.50;51.89;101251.11;1719847;83;21359;-78
2021/03/03 10:46:26;;;;;;;4.28;2.52;;;;;;;7.74;51.37;101253.77;1719883;83;21002;-78
2021/03/03 10:48:58;;;;;;;4.80;1.72;;;;;;;7.97;50.97;101257.77;1723587;82;21835;-77
2021/03/03 10:51:37;;;;;;;4.47;2.67;;;;;;;8.00;50.24;101260.70;1730636;82;21586;-77
2021/03/03 10:54:09;;;;;;;4.55;2.00;;;;;;;7.91;50.27;101262.08;1729248;82;21576;-79
2021/03/03 10:56:43;;;;;;;4.67;2.15;;;;;;;7.88;47.96;101270.58;1720041;83;21097;-76
2021/03/03 10:59:28;;;;;;;3.90;2.05;;;;;;;7.62;48.75;101261.44;1719834;83;21078;-79
2021/03/03 11:01:59;;;;;;;4.50;2.70;;;;;;;7.55;49.14;101256.14;1719807;83;22030;-77
2021/03/03 11:04:45;;;;;;;3.30;1.80;;;;;;;7.58;48.20;101255.97;1717865;83;22521;-75
2021/03/03 11:07:15;;;;;;;5.30;2.22;;;;;;;7.48;47.01;101252.98;1730037;82;21142;-76
2021/03/03 11:09:52;;;;;;;5.35;2.45;;;;;;;7.40;48.02;101250.74;1732158;82;21189;-78
2021/03/03 11:12:25;;;;;;;3.60;1.80;;;;;;;7.54;47.87;101242.62;1713295;82;21078;-76
2021/03/03 11:14:53;;;;;;;2.67;1.90;;;;;;;7.63;47.97;101244.77;1728310;82;24536;-76
2021/03/03 11:17:21;;;;;;;5.62;2.30;;;;;;;7.83;47.24;101239.74;1719728;83;21104;-77
2021/03/03 11:19:50;;;;;;;5.33;2.90;;;;;;;7.90;46.95;101244.56;1719806;83;21097;-75
2021/03/03 11:22:18;;;;;;;6.25;3.75;;;;;;;7.88;46.92;101235.06;1720427;82;22364;-76
2021/03/03 11:24:46;;;;;;;6.30;4.00;;;;;;;7.95;48.18;101237.28;1725528;82;21089;-76
2021/03/03 11:27:14;;;;;;;5.37;3.65;;;;;;;7.98;48.37;101231.00;1719795;83;21957;-76
2021/03/03 11:29:43;;;;;;;9.48;3.58;;;;;;;8.06;48.35;101234.06;1719730;83;21200;-75
2021/03/03 11:32:13;;;;;;;6.40;3.45;;;;;;;8.09;47.80;101234.35;1719707;83;21178;-75
2021/03/03 11:34:41;;;;;;;4.55;3.05;;;;;;;7.92;47.93;101236.15;1719772;83;21345;-76
2021/03/03 11:37:10;;;;;;;7.60;4.20;;;;;;;7.90;48.43;101237.98;1719849;83;21061;-76
2021/03/03 11:39:38;;;;;;;8.53;4.50;;;;;;;8.01;48.95;101229.07;1720166;82;22092;-76
2021/03/03 11:42:06;;;;;;;7.97;3.90;;;;;;;8.27;48.67;101226.75;1719725;83;21166;-76
2021/03/03 11:44:36;;;;;;;9.60;5.42;;;;;;;8.46;47.69;101233.17;1719774;83;21165;-76
2021/03/03 11:47:04;;;;;;;7.35;4.47;;;;;;;8.55;48.62;101222.97;1719692;83;21125;-76
2021/03/03 11:49:33;;;;;;;6.05;3.62;;;;;;;8.78;48.56;101227.36;1719771;83;21165;-76